Terminal Aerodrome Forecast
Issued by NWS

Current Version | Previous Version | Text Only | Print | Product List | Glossary On
Versions: 1 2 3 4 5 6 7 8 9 10 11 12
000
FTPQ31 PGUM 191126
TAFGUM
TAF

TAF
PTYA 191126Z 1912/2012 06011KT P6SM VCSH SCT016 SCT140=

USA.gov is the U.S. government's official web portal to all federal, state and local government web resources and services.